sensor_id;sensor_type;location;lat;lon;timestamp;P1;durP1;ratioP1;P2;durP2;ratioP2
6412;SDS011;3239;48.714;9.472;2023-02-01T00:00:36;3.63;;;2.40;;
6412;SDS011;3239;48.714;9.472;2023-02-01T00:03:02;3.63;;;2.70;;
6412;SDS011;3239;48.714;9.472;2023-02-01T00:05:27;5.37;;;2.27;;
6412;SDS011;3239;48.714;9.472;2023-02-01T00:07:53;4.50;;;2.37;;
6412;SDS011;3239;48.714;9.472;2023-02-01T00:10:19;3.30;;;2.47;;
6412;SDS011;3239;48.714;9.472;2023-02-01T00:12:44;3.00;;;2.30;;
6412;SDS011;3239;48.714;9.472;2023-02-01T00:15:10;2.87;;;2.57;;
6412;SDS011;3239;48.714;9.472;2023-02-01T00:17:36;8.97;;;3.80;;
6412;SDS011;3239;48.714;9.472;2023-02-01T00:20:02;5.93;;;2.23;;
6412;SDS011;3239;48.714;9.472;2023-02-01T00:22:28;2.87;;;1.90;;
6412;SDS011;3239;48.714;9.472;2023-02-01T00:24:54;4.53;;;2.10;;
6412;SDS011;3239;48.714;9.472;2023-02-01T00:27:19;4.87;;;2.40;;
6412;SDS011;3239;48.714;9.472;2023-02-01T00:29:46;4.00;;;2.57;;
6412;SDS011;3239;48.714;9.472;2023-02-01T00:32:12;2.60;;;1.97;;
6412;SDS011;3239;48.714;9.472;2023-02-01T00:34:38;3.30;;;2.20;;
6412;SDS011;3239;48.714;9.472;2023-02-01T00:37:04;2.33;;;2.00;;
6412;SDS011;3239;48.714;9.472;2023-02-01T00:39:29;2.90;;;2.10;;
6412;SDS011;3239;48.714;9.472;2023-02-01T00:41:55;2.87;;;2.23;;
6412;SDS011;3239;48.714;9.472;2023-02-01T00:44:21;2.43;;;2.23;;
6412;SDS011;3239;48.714;9.472;2023-02-01T00:46:47;8.00;;;2.63;;
6412;SDS011;3239;48.714;9.472;2023-02-01T00:49:12;2.50;;;1.80;;
6412;SDS011;3239;48.714;9.472;2023-02-01T00:51:38;2.40;;;2.17;;
6412;SDS011;3239;48.714;9.472;2023-02-01T00:54:04;4.73;;;1.97;;
6412;SDS011;3239;48.714;9.472;2023-02-01T00:56:30;2.53;;;1.57;;
6412;SDS011;3239;48.714;9.472;2023-02-01T00:58:55;2.80;;;2.20;;
6412;SDS011;3239;48.714;9.472;2023-02-01T01:01:22;3.23;;;2.10;;
6412;SDS011;3239;48.714;9.472;2023-02-01T01:03:55;3.47;;;2.37;;
6412;SDS011;3239;48.714;9.472;2023-02-01T01:06:25;3.50;;;2.37;;
6412;SDS011;3239;48.714;9.472;2023-02-01T01:08:54;2.17;;;1.83;;
6412;SDS011;3239;48.714;9.472;2023-02-01T01:11:23;2.40;;;1.90;;
6412;SDS011;3239;48.714;9.472;2023-02-01T01:13:55;2.57;;;2.20;;
6412;SDS011;3239;48.714;9.472;2023-02-01T01:16:23;3.27;;;2.30;;
6412;SDS011;3239;48.714;9.472;2023-02-01T01:18:51;2.40;;;2.17;;
6412;SDS011;3239;48.714;9.472;2023-02-01T01:21:17;2.17;;;1.97;;
6412;SDS011;3239;48.714;9.472;2023-02-01T01:23:44;2.63;;;1.80;;
6412;SDS011;3239;48.714;9.472;2023-02-01T01:26:16;3.70;;;2.20;;
6412;SDS011;3239;48.714;9.472;2023-02-01T01:28:47;2.20;;;2.00;;
6412;SDS011;3239;48.714;9.472;2023-02-01T01:31:14;3.33;;;2.50;;
6412;SDS011;3239;48.714;9.472;2023-02-01T01:33:42;5.77;;;1.87;;
6412;SDS011;3239;48.714;9.472;2023-02-01T01:36:11;2.10;;;1.50;;
6412;SDS011;3239;48.714;9.472;2023-02-01T01:38:38;2.93;;;1.90;;
6412;SDS011;3239;48.714;9.472;2023-02-01T01:41:05;2.27;;;1.70;;
6412;SDS011;3239;48.714;9.472;2023-02-01T01:43:46;3.00;;;2.17;;
6412;SDS011;3239;48.714;9.472;2023-02-01T01:46:26;5.00;;;1.87;;
6412;SDS011;3239;48.714;9.472;2023-02-01T01:48:56;2.20;;;2.00;;
6412;SDS011;3239;48.714;9.472;2023-02-01T01:51:42;4.47;;;1.70;;
6412;SDS011;3239;48.714;9.472;2023-02-01T01:54:17;2.17;;;1.70;;
6412;SDS011;3239;48.714;9.472;2023-02-01T01:56:52;2.03;;;1.50;;
6412;SDS011;3239;48.714;9.472;2023-02-01T01:59:24;2.20;;;1.70;;
6412;SDS011;3239;48.714;9.472;2023-02-01T02:01:50;2.63;;;1.70;;
6412;SDS011;3239;48.714;9.472;2023-02-01T02:04:17;2.00;;;1.73;;
6412;SDS011;3239;48.714;9.472;2023-02-01T02:06:51;2.30;;;1.80;;
6412;SDS011;3239;48.714;9.472;2023-02-01T02:09:24;2.97;;;1.70;;
6412;SDS011;3239;48.714;9.472;2023-02-01T02:11:50;2.83;;;2.07;;
6412;SDS011;3239;48.714;9.472;2023-02-01T02:14:17;2.30;;;1.50;;
6412;SDS011;3239;48.714;9.472;2023-02-01T02:20:04;1.93;;;1.53;;
6412;SDS011;3239;48.714;9.472;2023-02-01T02:23:18;2.60;;;1.67;;
6412;SDS011;3239;48.714;9.472;2023-02-01T02:29:15;3.27;;;1.83;;
6412;SDS011;3239;48.714;9.472;2023-02-01T02:44:47;3.33;;;1.87;;
6412;SDS011;3239;48.714;9.472;2023-02-01T02:50:17;1.80;;;1.50;;
6412;SDS011;3239;48.714;9.472;2023-02-01T02:56:46;1.70;;;1.53;;
6412;SDS011;3239;48.714;9.472;2023-02-01T02:59:33;1.80;;;1.27;;
6412;SDS011;3239;48.714;9.472;2023-02-01T03:02:18;1.93;;;1.20;;
6412;SDS011;3239;48.714;9.472;2023-02-01T03:05:04;3.03;;;1.70;;
6412;SDS011;3239;48.714;9.472;2023-02-01T03:13:57;2.73;;;1.23;;
6412;SDS011;3239;48.714;9.472;2023-02-01T03:16:09;3.63;;;1.60;;
6412;SDS011;3239;48.714;9.472;2023-02-01T03:21:57;3.20;;;1.70;;
6412;SDS011;3239;48.714;9.472;2023-02-01T03:24:34;3.90;;;1.67;;
6412;SDS011;3239;48.714;9.472;2023-02-01T03:30:26;1.53;;;1.27;;
6412;SDS011;3239;48.714;9.472;2023-02-01T03:32:59;2.60;;;1.93;;
6412;SDS011;3239;48.714;9.472;2023-02-01T03:38:21;1.97;;;1.40;;
6412;SDS011;3239;48.714;9.472;2023-02-01T03:41:12;2.50;;;1.53;;
6412;SDS011;3239;48.714;9.472;2023-02-01T03:46:45;2.80;;;1.53;;
6412;SDS011;3239;48.714;9.472;2023-02-01T03:49:24;2.20;;;1.77;;
6412;SDS011;3239;48.714;9.472;2023-02-01T03:51:59;1.77;;;1.40;;
6412;SDS011;3239;48.714;9.472;2023-02-01T03:54:26;1.80;;;1.40;;
6412;SDS011;3239;48.714;9.472;2023-02-01T03:56:54;2.67;;;2.10;;
6412;SDS011;3239;48.714;9.472;2023-02-01T03:59:23;2.60;;;1.83;;
6412;SDS011;3239;48.714;9.472;2023-02-01T04:01:49;1.90;;;1.70;;
6412;SDS011;3239;48.714;9.472;2023-02-01T04:04:15;1.70;;;1.30;;
6412;SDS011;3239;48.714;9.472;2023-02-01T04:06:48;2.17;;;1.80;;
6412;SDS011;3239;48.714;9.472;2023-02-01T04:09:15;3.80;;;2.00;;
6412;SDS011;3239;48.714;9.472;2023-02-01T04:11:41;2.43;;;1.60;;
6412;SDS011;3239;48.714;9.472;2023-02-01T04:14:07;5.80;;;3.77;;
6412;SDS011;3239;48.714;9.472;2023-02-01T04:16:33;3.70;;;2.47;;
6412;SDS011;3239;48.714;9.472;2023-02-01T04:19:00;2.70;;;2.07;;
6412;SDS011;3239;48.714;9.472;2023-02-01T04:21:26;2.30;;;2.10;;
6412;SDS011;3239;48.714;9.472;2023-02-01T04:23:52;2.00;;;1.80;;
6412;SDS011;3239;48.714;9.472;2023-02-01T04:26:19;2.20;;;1.50;;
6412;SDS011;3239;48.714;9.472;2023-02-01T04:28:45;2.60;;;1.67;;
6412;SDS011;3239;48.714;9.472;2023-02-01T04:31:15;2.43;;;1.40;;
6412;SDS011;3239;48.714;9.472;2023-02-01T04:33:41;2.07;;;1.40;;
6412;SDS011;3239;48.714;9.472;2023-02-01T04:36:08;2.80;;;1.57;;
6412;SDS011;3239;48.714;9.472;2023-02-01T04:38:34;3.27;;;1.73;;
6412;SDS011;3239;48.714;9.472;2023-02-01T04:41:00;1.90;;;1.40;;
6412;SDS011;3239;48.714;9.472;2023-02-01T04:43:26;2.00;;;1.43;;
6412;SDS011;3239;48.714;9.472;2023-02-01T04:45:52;3.27;;;1.77;;
6412;SDS011;3239;48.714;9.472;2023-02-01T04:48:19;2.17;;;1.23;;
6412;SDS011;3239;48.714;9.472;2023-02-01T04:50:45;1.67;;;1.30;;
6412;SDS011;3239;48.714;9.472;2023-02-01T04:53:16;1.90;;;1.57;;
6412;SDS011;3239;48.714;9.472;2023-02-01T04:55:42;1.90;;;1.40;;
6412;SDS011;3239;48.714;9.472;2023-02-01T04:58:09;4.57;;;1.57;;
6412;SDS011;3239;48.714;9.472;2023-02-01T05:00:35;2.90;;;1.50;;
6412;SDS011;3239;48.714;9.472;2023-02-01T05:03:02;2.70;;;1.80;;
6412;SDS011;3239;48.714;9.472;2023-02-01T05:05:28;1.50;;;1.17;;
6412;SDS011;3239;48.714;9.472;2023-02-01T05:07:54;1.93;;;1.43;;
6412;SDS011;3239;48.714;9.472;2023-02-01T05:10:20;1.60;;;1.20;;
6412;SDS011;3239;48.714;9.472;2023-02-01T05:12:47;1.80;;;1.57;;
6412;SDS011;3239;48.714;9.472;2023-02-01T05:15:31;2.10;;;1.63;;
6412;SDS011;3239;48.714;9.472;2023-02-01T05:17:57;2.30;;;1.70;;
6412;SDS011;3239;48.714;9.472;2023-02-01T05:20:23;1.83;;;1.40;;
6412;SDS011;3239;48.714;9.472;2023-02-01T05:22:52;1.90;;;1.50;;
6412;SDS011;3239;48.714;9.472;2023-02-01T05:25:17;3.13;;;1.30;;
6412;SDS011;3239;48.714;9.472;2023-02-01T05:27:43;2.67;;;1.70;;
6412;SDS011;3239;48.714;9.472;2023-02-01T05:30:09;3.67;;;1.70;;
6412;SDS011;3239;48.714;9.472;2023-02-01T05:32:36;2.30;;;1.50;;
6412;SDS011;3239;48.714;9.472;2023-02-01T05:35:01;5.27;;;3.20;;
6412;SDS011;3239;48.714;9.472;2023-02-01T05:37:27;3.67;;;2.77;;
6412;SDS011;3239;48.714;9.472;2023-02-01T05:39:53;2.20;;;1.50;;
6412;SDS011;3239;48.714;9.472;2023-02-01T05:42:19;3.40;;;2.23;;
6412;SDS011;3239;48.714;9.472;2023-02-01T05:44:45;1.80;;;1.50;;
6412;SDS011;3239;48.714;9.472;2023-02-01T05:47:10;1.93;;;1.40;;
6412;SDS011;3239;48.714;9.472;2023-02-01T05:49:37;2.07;;;1.30;;
6412;SDS011;3239;48.714;9.472;2023-02-01T05:52:03;1.90;;;1.70;;
6412;SDS011;3239;48.714;9.472;2023-02-01T05:54:29;2.87;;;1.37;;
6412;SDS011;3239;48.714;9.472;2023-02-01T05:56:54;2.00;;;1.60;;
6412;SDS011;3239;48.714;9.472;2023-02-01T05:59:20;3.20;;;1.40;;
6412;SDS011;3239;48.714;9.472;2023-02-01T06:01:46;4.37;;;1.73;;
6412;SDS011;3239;48.714;9.472;2023-02-01T06:04:12;2.70;;;1.60;;
6412;SDS011;3239;48.714;9.472;2023-02-01T06:06:38;2.93;;;1.57;;
6412;SDS011;3239;48.714;9.472;2023-02-01T06:09:03;1.80;;;1.20;;
6412;SDS011;3239;48.714;9.472;2023-02-01T06:11:29;2.63;;;2.13;;
6412;SDS011;3239;48.714;9.472;2023-02-01T06:13:55;2.83;;;1.53;;
6412;SDS011;3239;48.714;9.472;2023-02-01T06:16:21;3.43;;;1.77;;
6412;SDS011;3239;48.714;9.472;2023-02-01T06:18:47;2.80;;;2.07;;
6412;SDS011;3239;48.714;9.472;2023-02-01T06:21:13;2.33;;;1.70;;
6412;SDS011;3239;48.714;9.472;2023-02-01T06:23:48;2.57;;;1.97;;
6412;SDS011;3239;48.714;9.472;2023-02-01T06:26:20;3.30;;;1.93;;
6412;SDS011;3239;48.714;9.472;2023-02-01T06:28:46;2.60;;;1.60;;
6412;SDS011;3239;48.714;9.472;2023-02-01T06:31:11;2.20;;;1.73;;
6412;SDS011;3239;48.714;9.472;2023-02-01T06:33:37;2.90;;;1.80;;
6412;SDS011;3239;48.714;9.472;2023-02-01T06:36:05;2.60;;;1.70;;
6412;SDS011;3239;48.714;9.472;2023-02-01T06:38:32;3.47;;;1.30;;
6412;SDS011;3239;48.714;9.472;2023-02-01T06:41:00;2.30;;;1.77;;
6412;SDS011;3239;48.714;9.472;2023-02-01T06:43:26;2.27;;;1.53;;
6412;SDS011;3239;48.714;9.472;2023-02-01T06:45:53;2.23;;;1.63;;
6412;SDS011;3239;48.714;9.472;2023-02-01T06:48:23;2.57;;;1.80;;
6412;SDS011;3239;48.714;9.472;2023-02-01T06:50:49;5.27;;;1.80;;
6412;SDS011;3239;48.714;9.472;2023-02-01T06:53:15;2.20;;;1.73;;
6412;SDS011;3239;48.714;9.472;2023-02-01T06:55:41;2.33;;;1.60;;
6412;SDS011;3239;48.714;9.472;2023-02-01T06:58:06;3.43;;;3.03;;
6412;SDS011;3239;48.714;9.472;2023-02-01T07:00:32;5.10;;;1.40;;
6412;SDS011;3239;48.714;9.472;2023-02-01T07:02:58;4.93;;;1.60;;
6412;SDS011;3239;48.714;9.472;2023-02-01T07:05:24;3.13;;;1.50;;
6412;SDS011;3239;48.714;9.472;2023-02-01T07:07:50;2.17;;;1.57;;
6412;SDS011;3239;48.714;9.472;2023-02-01T07:10:16;2.03;;;1.40;;
6412;SDS011;3239;48.714;9.472;2023-02-01T07:12:42;2.30;;;1.70;;
6412;SDS011;3239;48.714;9.472;2023-02-01T07:15:08;2.30;;;1.60;;
6412;SDS011;3239;48.714;9.472;2023-02-01T07:17:34;3.53;;;1.93;;
6412;SDS011;3239;48.714;9.472;2023-02-01T07:19:59;5.27;;;2.17;;
6412;SDS011;3239;48.714;9.472;2023-02-01T07:22:26;2.40;;;1.63;;
6412;SDS011;3239;48.714;9.472;2023-02-01T07:24:52;3.23;;;1.47;;
6412;SDS011;3239;48.714;9.472;2023-02-01T07:27:18;2.10;;;1.47;;
6412;SDS011;3239;48.714;9.472;2023-02-01T07:29:44;3.23;;;1.67;;
6412;SDS011;3239;48.714;9.472;2023-02-01T07:32:10;2.93;;;1.40;;
6412;SDS011;3239;48.714;9.472;2023-02-01T07:34:36;2.27;;;1.40;;
6412;SDS011;3239;48.714;9.472;2023-02-01T07:37:02;1.90;;;1.50;;
6412;SDS011;3239;48.714;9.472;2023-02-01T07:39:28;1.80;;;1.40;;
6412;SDS011;3239;48.714;9.472;2023-02-01T07:41:56;3.00;;;1.67;;
6412;SDS011;3239;48.714;9.472;2023-02-01T07:44:22;2.37;;;1.37;;
6412;SDS011;3239;48.714;9.472;2023-02-01T07:46:48;2.30;;;1.80;;
6412;SDS011;3239;48.714;9.472;2023-02-01T07:49:15;2.17;;;1.40;;
6412;SDS011;3239;48.714;9.472;2023-02-01T07:51:42;2.83;;;1.73;;
6412;SDS011;3239;48.714;9.472;2023-02-01T07:54:08;2.67;;;1.40;;
6412;SDS011;3239;48.714;9.472;2023-02-01T07:56:34;2.20;;;1.60;;
6412;SDS011;3239;48.714;9.472;2023-02-01T07:59:00;2.63;;;1.73;;
6412;SDS011;3239;48.714;9.472;2023-02-01T08:01:27;3.27;;;1.63;;
6412;SDS011;3239;48.714;9.472;2023-02-01T08:03:55;2.30;;;1.67;;
6412;SDS011;3239;48.714;9.472;2023-02-01T08:06:29;6.60;;;1.90;;
6412;SDS011;3239;48.714;9.472;2023-02-01T08:08:57;2.37;;;1.63;;
6412;SDS011;3239;48.714;9.472;2023-02-01T08:11:23;3.97;;;1.80;;
6412;SDS011;3239;48.714;9.472;2023-02-01T08:13:50;2.13;;;1.30;;
6412;SDS011;3239;48.714;9.472;2023-02-01T08:16:17;1.60;;;1.40;;
6412;SDS011;3239;48.714;9.472;2023-02-01T08:18:44;2.70;;;1.50;;
6412;SDS011;3239;48.714;9.472;2023-02-01T08:21:11;3.73;;;1.90;;
6412;SDS011;3239;48.714;9.472;2023-02-01T08:23:49;3.00;;;1.67;;
6412;SDS011;3239;48.714;9.472;2023-02-01T08:26:19;3.97;;;1.57;;
6412;SDS011;3239;48.714;9.472;2023-02-01T08:28:50;2.50;;;1.43;;
6412;SDS011;3239;48.714;9.472;2023-02-01T08:31:19;2.47;;;1.73;;
6412;SDS011;3239;48.714;9.472;2023-02-01T08:33:52;2.63;;;1.60;;
6412;SDS011;3239;48.714;9.472;2023-02-01T08:36:21;4.07;;;1.53;;
6412;SDS011;3239;48.714;9.472;2023-02-01T08:38:48;5.40;;;1.50;;
6412;SDS011;3239;48.714;9.472;2023-02-01T08:41:15;3.47;;;1.87;;
6412;SDS011;3239;48.714;9.472;2023-02-01T08:43:44;1.70;;;1.20;;
6412;SDS011;3239;48.714;9.472;2023-02-01T08:46:10;2.47;;;1.17;;
6412;SDS011;3239;48.714;9.472;2023-02-01T08:48:37;3.27;;;1.50;;
6412;SDS011;3239;48.714;9.472;2023-02-01T08:51:07;2.37;;;1.60;;
6412;SDS011;3239;48.714;9.472;2023-02-01T08:53:38;2.90;;;1.87;;
6412;SDS011;3239;48.714;9.472;2023-02-01T08:56:08;3.00;;;1.80;;
6412;SDS011;3239;48.714;9.472;2023-02-01T08:58:35;3.77;;;1.53;;
6412;SDS011;3239;48.714;9.472;2023-02-01T09:01:02;3.00;;;1.40;;
6412;SDS011;3239;48.714;9.472;2023-02-01T09:03:30;2.70;;;1.37;;
6412;SDS011;3239;48.714;9.472;2023-02-01T09:06:00;3.10;;;1.57;;
6412;SDS011;3239;48.714;9.472;2023-02-01T09:08:28;2.30;;;1.60;;
6412;SDS011;3239;48.714;9.472;2023-02-01T09:10:57;4.33;;;2.30;;
6412;SDS011;3239;48.714;9.472;2023-02-01T09:13:25;4.90;;;2.00;;
6412;SDS011;3239;48.714;9.472;2023-02-01T09:15:51;4.80;;;2.40;;
6412;SDS011;3239;48.714;9.472;2023-02-01T09:18:17;3.40;;;1.57;;
6412;SDS011;3239;48.714;9.472;2023-02-01T09:20:43;4.43;;;1.60;;
6412;SDS011;3239;48.714;9.472;2023-02-01T09:23:09;2.23;;;1.53;;
6412;SDS011;3239;48.714;9.472;2023-02-01T09:25:36;2.27;;;1.70;;
6412;SDS011;3239;48.714;9.472;2023-02-01T09:28:03;3.43;;;1.67;;
6412;SDS011;3239;48.714;9.472;2023-02-01T09:30:31;4.57;;;1.37;;
6412;SDS011;3239;48.714;9.472;2023-02-01T09:32:57;3.60;;;1.30;;
6412;SDS011;3239;48.714;9.472;2023-02-01T09:35:24;2.73;;;1.53;;
6412;SDS011;3239;48.714;9.472;2023-02-01T09:37:50;3.57;;;1.37;;
6412;SDS011;3239;48.714;9.472;2023-02-01T09:40:18;5.20;;;1.60;;
6412;SDS011;3239;48.714;9.472;2023-02-01T09:42:58;5.60;;;1.40;;
6412;SDS011;3239;48.714;9.472;2023-02-01T09:48:34;1.90;;;1.50;;
6412;SDS011;3239;48.714;9.472;2023-02-01T09:51:11;2.50;;;1.47;;
6412;SDS011;3239;48.714;9.472;2023-02-01T09:53:47;5.40;;;1.70;;
6412;SDS011;3239;48.714;9.472;2023-02-01T09:56:33;4.23;;;1.77;;
6412;SDS011;3239;48.714;9.472;2023-02-01T10:02:16;5.13;;;1.50;;
6412;SDS011;3239;48.714;9.472;2023-02-01T10:05:00;3.07;;;1.60;;
6412;SDS011;3239;48.714;9.472;2023-02-01T10:10:32;3.00;;;1.40;;
6412;SDS011;3239;48.714;9.472;2023-02-01T10:16:25;3.67;;;1.37;;
6412;SDS011;3239;48.714;9.472;2023-02-01T10:19:39;2.13;;;1.10;;
6412;SDS011;3239;48.714;9.472;2023-02-01T10:25:22;2.47;;;1.20;;
6412;SDS011;3239;48.714;9.472;2023-02-01T10:28:13;4.97;;;1.93;;
6412;SDS011;3239;48.714;9.472;2023-02-01T10:30:46;3.37;;;1.60;;
6412;SDS011;3239;48.714;9.472;2023-02-01T10:33:17;6.03;;;1.93;;
6412;SDS011;3239;48.714;9.472;2023-02-01T10:35:46;3.33;;;1.63;;
6412;SDS011;3239;48.714;9.472;2023-02-01T10:38:26;5.63;;;2.40;;
6412;SDS011;3239;48.714;9.472;2023-02-01T10:40:55;7.43;;;2.17;;
6412;SDS011;3239;48.714;9.472;2023-02-01T10:43:41;3.53;;;1.90;;
6412;SDS011;3239;48.714;9.472;2023-02-01T10:46:08;6.00;;;2.00;;
6412;SDS011;3239;48.714;9.472;2023-02-01T10:48:34;5.87;;;1.57;;
6412;SDS011;3239;48.714;9.472;2023-02-01T10:51:06;2.87;;;1.40;;
6412;SDS011;3239;48.714;9.472;2023-02-01T10:53:55;9.77;;;2.00;;
6412;SDS011;3239;48.714;9.472;2023-02-01T10:56:28;4.70;;;1.67;;
6412;SDS011;3239;48.714;9.472;2023-02-01T10:59:01;7.40;;;2.17;;
6412;SDS011;3239;48.714;9.472;2023-02-01T11:01:33;9.63;;;1.70;;
6412;SDS011;3239;48.714;9.472;2023-02-01T11:04:24;3.50;;;1.40;;
6412;SDS011;3239;48.714;9.472;2023-02-01T11:07:33;5.10;;;2.20;;
6412;SDS011;3239;48.714;9.472;2023-02-01T11:09:54;5.17;;;2.27;;
6412;SDS011;3239;48.714;9.472;2023-02-01T11:12:23;7.77;;;2.80;;
6412;SDS011;3239;48.714;9.472;2023-02-01T11:15:21;5.00;;;2.30;;
6412;SDS011;3239;48.714;9.472;2023-02-01T11:17:48;10.40;;;4.07;;
6412;SDS011;3239;48.714;9.472;2023-02-01T11:20:40;5.90;;;2.37;;
6412;SDS011;3239;48.714;9.472;2023-02-01T11:23:17;7.00;;;2.17;;
6412;SDS011;3239;48.714;9.472;2023-02-01T11:25:48;11.57;;;2.53;;
6412;SDS011;3239;48.714;9.472;2023-02-01T11:28:34;7.20;;;3.20;;
6412;SDS011;3239;48.714;9.472;2023-02-01T11:31:07;8.87;;;2.20;;
6412;SDS011;3239;48.714;9.472;2023-02-01T11:33:37;4.03;;;1.97;;
6412;SDS011;3239;48.714;9.472;2023-02-01T11:36:15;12.30;;;2.27;;
6412;SDS011;3239;48.714;9.472;2023-02-01T11:39:07;10.27;;;2.53;;
6412;SDS011;3239;48.714;9.472;2023-02-01T11:42:21;7.13;;;1.70;;
6412;SDS011;3239;48.714;9.472;2023-02-01T11:44:38;8.63;;;2.03;;
6412;SDS011;3239;48.714;9.472;2023-02-01T11:47:40;8.63;;;1.70;;
6412;SDS011;3239;48.714;9.472;2023-02-01T11:50:17;9.87;;;1.90;;
6412;SDS011;3239;48.714;9.472;2023-02-01T11:56:17;8.03;;;1.70;;
6412;SDS011;3239;48.714;9.472;2023-02-01T11:59:20;6.40;;;2.00;;
6412;SDS011;3239;48.714;9.472;2023-02-01T12:02:39;8.50;;;1.83;;
6412;SDS011;3239;48.714;9.472;2023-02-01T12:26:08;13.87;;;2.70;;
6412;SDS011;3239;48.714;9.472;2023-02-01T12:31:32;9.73;;;2.23;;
6412;SDS011;3239;48.714;9.472;2023-02-01T12:34:14;11.07;;;2.70;;
6412;SDS011;3239;48.714;9.472;2023-02-01T12:42:17;7.80;;;2.47;;
6412;SDS011;3239;48.714;9.472;2023-02-01T12:47:55;12.20;;;2.43;;
6412;SDS011;3239;48.714;9.472;2023-02-01T12:50:45;10.40;;;2.20;;
6412;SDS011;3239;48.714;9.472;2023-02-01T12:53:25;9.10;;;2.60;;
6412;SDS011;3239;48.714;9.472;2023-02-01T12:56:09;6.73;;;2.90;;
6412;SDS011;3239;48.714;9.472;2023-02-01T12:58:42;14.03;;;3.00;;
6412;SDS011;3239;48.714;9.472;2023-02-01T13:01:31;7.83;;;1.87;;
6412;SDS011;3239;48.714;9.472;2023-02-01T13:04:05;9.70;;;2.07;;
6412;SDS011;3239;48.714;9.472;2023-02-01T13:12:59;6.27;;;2.03;;
6412;SDS011;3239;48.714;9.472;2023-02-01T13:18:51;4.57;;;1.73;;
6412;SDS011;3239;48.714;9.472;2023-02-01T13:21:32;11.57;;;2.17;;
6412;SDS011;3239;48.714;9.472;2023-02-01T13:24:03;11.20;;;2.67;;
6412;SDS011;3239;48.714;9.472;2023-02-01T13:26:29;8.80;;;2.37;;
6412;SDS011;3239;48.714;9.472;2023-02-01T13:43:27;7.90;;;1.67;;
6412;SDS011;3239;48.714;9.472;2023-02-01T13:45:56;8.63;;;2.17;;
6412;SDS011;3239;48.714;9.472;2023-02-01T13:49:13;11.23;;;2.63;;
6412;SDS011;3239;48.714;9.472;2023-02-01T13:51:48;10.17;;;2.67;;
6412;SDS011;3239;48.714;9.472;2023-02-01T13:54:30;12.37;;;2.80;;
6412;SDS011;3239;48.714;9.472;2023-02-01T13:57:03;6.03;;;2.00;;
6412;SDS011;3239;48.714;9.472;2023-02-01T14:05:09;12.93;;;2.50;;
6412;SDS011;3239;48.714;9.472;2023-02-01T14:07:36;6.73;;;2.37;;
6412;SDS011;3239;48.714;9.472;2023-02-01T14:31:41;5.70;;;1.57;;
6412;SDS011;3239;48.714;9.472;2023-02-01T14:34:27;5.67;;;1.87;;
6412;SDS011;3239;48.714;9.472;2023-02-01T14:47:48;12.30;;;2.73;;
6412;SDS011;3239;48.714;9.472;2023-02-01T14:50:44;8.60;;;1.70;;
6412;SDS011;3239;48.714;9.472;2023-02-01T14:55:53;20.50;;;7.00;;
6412;SDS011;3239;48.714;9.472;2023-02-01T14:58:47;9.50;;;2.43;;
6412;SDS011;3239;48.714;9.472;2023-02-01T15:01:46;16.07;;;2.00;;
6412;SDS011;3239;48.714;9.472;2023-02-01T15:04:18;16.40;;;4.87;;
6412;SDS011;3239;48.714;9.472;2023-02-01T15:07:05;9.60;;;2.60;;
6412;SDS011;3239;48.714;9.472;2023-02-01T15:09:46;7.23;;;1.90;;
6412;SDS011;3239;48.714;9.472;2023-02-01T15:12:15;6.90;;;2.43;;
6412;SDS011;3239;48.714;9.472;2023-02-01T15:17:56;9.03;;;2.70;;
6412;SDS011;3239;48.714;9.472;2023-02-01T15:20:31;15.23;;;2.60;;
6412;SDS011;3239;48.714;9.472;2023-02-01T15:23:05;8.00;;;1.90;;
6412;SDS011;3239;48.714;9.472;2023-02-01T15:25:44;9.83;;;2.13;;
6412;SDS011;3239;48.714;9.472;2023-02-01T15:28:15;5.20;;;2.27;;
6412;SDS011;3239;48.714;9.472;2023-02-01T15:30:55;5.10;;;2.30;;
6412;SDS011;3239;48.714;9.472;2023-02-01T15:33:32;8.13;;;2.43;;
6412;SDS011;3239;48.714;9.472;2023-02-01T15:36:09;12.27;;;2.33;;
6412;SDS011;3239;48.714;9.472;2023-02-01T15:38:43;12.83;;;2.53;;
6412;SDS011;3239;48.714;9.472;2023-02-01T15:41:16;15.83;;;2.80;;
6412;SDS011;3239;48.714;9.472;2023-02-01T15:43:47;3.97;;;2.10;;
6412;SDS011;3239;48.714;9.472;2023-02-01T15:46:31;6.17;;;2.10;;
6412;SDS011;3239;48.714;9.472;2023-02-01T15:49:04;8.37;;;2.27;;
6412;SDS011;3239;48.714;9.472;2023-02-01T15:51:58;10.37;;;2.37;;
6412;SDS011;3239;48.714;9.472;2023-02-01T15:54:28;5.83;;;2.30;;
6412;SDS011;3239;48.714;9.472;2023-02-01T15:57:28;7.60;;;2.23;;
6412;SDS011;3239;48.714;9.472;2023-02-01T15:59:59;5.30;;;2.30;;
6412;SDS011;3239;48.714;9.472;2023-02-01T16:02:37;6.47;;;2.70;;
6412;SDS011;3239;48.714;9.472;2023-02-01T16:05:06;6.63;;;2.67;;
6412;SDS011;3239;48.714;9.472;2023-02-01T16:08:19;10.20;;;2.20;;
6412;SDS011;3239;48.714;9.472;2023-02-01T16:10:53;6.40;;;2.33;;
6412;SDS011;3239;48.714;9.472;2023-02-01T16:13:26;8.70;;;2.77;;
6412;SDS011;3239;48.714;9.472;2023-02-01T16:15:52;7.50;;;2.33;;
6412;SDS011;3239;48.714;9.472;2023-02-01T16:18:18;9.17;;;2.80;;
6412;SDS011;3239;48.714;9.472;2023-02-01T16:20:45;10.53;;;3.53;;
6412;SDS011;3239;48.714;9.472;2023-02-01T16:23:13;7.10;;;2.43;;
6412;SDS011;3239;48.714;9.472;2023-02-01T16:25:39;8.10;;;2.03;;
6412;SDS011;3239;48.714;9.472;2023-02-01T16:28:05;7.07;;;2.20;;
6412;SDS011;3239;48.714;9.472;2023-02-01T16:30:31;10.13;;;2.90;;
6412;SDS011;3239;48.714;9.472;2023-02-01T16:32:59;6.40;;;1.60;;
6412;SDS011;3239;48.714;9.472;2023-02-01T16:35:36;9.17;;;2.03;;
6412;SDS011;3239;48.714;9.472;2023-02-01T16:38:03;5.77;;;2.40;;
6412;SDS011;3239;48.714;9.472;2023-02-01T16:40:37;5.40;;;1.80;;
6412;SDS011;3239;48.714;9.472;2023-02-01T16:43:11;10.67;;;2.00;;
6412;SDS011;3239;48.714;9.472;2023-02-01T16:45:48;10.07;;;2.63;;
6412;SDS011;3239;48.714;9.472;2023-02-01T16:48:21;7.10;;;1.90;;
6412;SDS011;3239;48.714;9.472;2023-02-01T16:50:54;12.80;;;3.40;;
6412;SDS011;3239;48.714;9.472;2023-02-01T16:53:31;9.60;;;2.30;;
6412;SDS011;3239;48.714;9.472;2023-02-01T16:55:58;4.60;;;1.90;;
6412;SDS011;3239;48.714;9.472;2023-02-01T16:58:24;7.90;;;2.47;;
6412;SDS011;3239;48.714;9.472;2023-02-01T17:00:52;15.13;;;2.33;;
6412;SDS011;3239;48.714;9.472;2023-02-01T17:03:19;7.90;;;2.13;;
6412;SDS011;3239;48.714;9.472;2023-02-01T17:05:53;19.27;;;3.73;;
6412;SDS011;3239;48.714;9.472;2023-02-01T17:08:27;11.73;;;3.43;;
6412;SDS011;3239;48.714;9.472;2023-02-01T17:11:00;9.03;;;2.77;;
6412;SDS011;3239;48.714;9.472;2023-02-01T17:13:28;24.07;;;3.03;;
6412;SDS011;3239;48.714;9.472;2023-02-01T17:16:04;13.97;;;3.60;;
6412;SDS011;3239;48.714;9.472;2023-02-01T17:18:37;6.57;;;2.50;;
6412;SDS011;3239;48.714;9.472;2023-02-01T17:21:04;12.90;;;3.90;;
6412;SDS011;3239;48.714;9.472;2023-02-01T17:23:33;10.70;;;3.30;;
6412;SDS011;3239;48.714;9.472;2023-02-01T17:26:18;11.60;;;2.30;;
6412;SDS011;3239;48.714;9.472;2023-02-01T17:28:45;10.90;;;2.77;;
6412;SDS011;3239;48.714;9.472;2023-02-01T17:31:12;8.77;;;2.17;;
6412;SDS011;3239;48.714;9.472;2023-02-01T17:33:40;12.63;;;3.10;;
6412;SDS011;3239;48.714;9.472;2023-02-01T17:36:09;11.70;;;3.63;;
6412;SDS011;3239;48.714;9.472;2023-02-01T17:38:40;18.67;;;3.77;;
6412;SDS011;3239;48.714;9.472;2023-02-01T17:41:11;13.83;;;2.67;;
6412;SDS011;3239;48.714;9.472;2023-02-01T17:43:42;12.50;;;2.70;;
6412;SDS011;3239;48.714;9.472;2023-02-01T17:46:16;7.93;;;3.17;;
6412;SDS011;3239;48.714;9.472;2023-02-01T17:48:45;10.13;;;3.47;;
6412;SDS011;3239;48.714;9.472;2023-02-01T17:51:18;11.63;;;3.30;;
6412;SDS011;3239;48.714;9.472;2023-02-01T17:53:47;8.97;;;3.37;;
6412;SDS011;3239;48.714;9.472;2023-02-01T17:56:14;10.30;;;3.00;;
6412;SDS011;3239;48.714;9.472;2023-02-01T17:58:46;13.60;;;2.90;;
6412;SDS011;3239;48.714;9.472;2023-02-01T18:01:14;9.17;;;2.90;;
6412;SDS011;3239;48.714;9.472;2023-02-01T18:03:45;8.97;;;2.90;;
6412;SDS011;3239;48.714;9.472;2023-02-01T18:06:13;11.40;;;2.80;;
6412;SDS011;3239;48.714;9.472;2023-02-01T18:08:46;9.40;;;3.00;;
6412;SDS011;3239;48.714;9.472;2023-02-01T18:11:16;13.30;;;2.80;;
6412;SDS011;3239;48.714;9.472;2023-02-01T18:13:47;7.30;;;3.10;;
6412;SDS011;3239;48.714;9.472;2023-02-01T18:16:16;10.97;;;4.20;;
6412;SDS011;3239;48.714;9.472;2023-02-01T18:18:46;12.13;;;3.70;;
6412;SDS011;3239;48.714;9.472;2023-02-01T18:21:13;20.70;;;3.90;;
6412;SDS011;3239;48.714;9.472;2023-02-01T18:23:41;12.97;;;2.87;;